Time;durP1;ratioP1;P1;durP2;ratioP2;P2;SDS_P1;SDS_P2;PMS_P1;PMS_P2;Temp;Humidity;BMP_temperature;BMP_pressure;BME280_temperature;BME280_humidity;BME280_pressure;Samples;Min_cycle;Max_cycle;Signal;HPM_P1;HPM_P2
2023/11/21 00:00:11;;;;;;;1.30;1.00;;;8.00;94.70;;;9.97;63.64;97007.31;5013110;28;20046;-60
2023/11/21 00:02:40;;;;;;;2.67;1.17;;;8.10;94.40;;;9.99;63.73;97009.81;5012489;28;20050;-60
2023/11/21 00:05:10;;;;;;;1.40;0.80;;;8.10;94.00;;;10.00;63.71;97014.94;5012985;28;20049;-60
2023/11/21 00:07:38;;;;;;;1.27;0.90;;;8.10;94.60;;;10.03;63.58;97011.94;5012994;28;20042;-60
2023/11/21 00:10:08;;;;;;;1.30;0.90;;;8.10;94.20;;;10.08;63.97;97000.78;5013065;28;20090;-59
2023/11/21 00:12:36;;;;;;;5.73;1.50;;;8.20;94.20;;;10.09;63.99;97007.75;5012911;28;20294;-60
2023/11/21 00:15:05;;;;;;;2.27;1.40;;;8.20;94.20;;;10.10;63.86;96998.78;5012561;28;20049;-60
2023/11/21 00:17:34;;;;;;;2.47;1.63;;;8.20;94.50;;;10.12;63.63;96991.47;5013138;28;20041;-60
2023/11/21 00:20:06;;;;;;;0.97;0.90;;;8.20;94.20;;;10.11;63.59;96997.75;5012827;28;20033;-60
2023/11/21 00:22:35;;;;;;;1.50;1.10;;;8.20;93.90;;;10.09;63.97;96990.97;5011690;28;20050;-59
2023/11/21 00:25:03;;;;;;;2.23;1.00;;;8.20;94.00;;;10.13;64.13;96992.28;5004812;28;20042;-60
2023/11/21 00:27:31;;;;;;;3.30;1.77;;;8.30;94.40;;;10.13;63.74;96992.28;5012645;28;20049;-60
2023/11/21 00:29:59;;;;;;;9.73;3.77;;;8.20;94.80;;;10.16;64.34;97003.41;5011105;28;20061;-60
2023/11/21 00:32:26;;;;;;;11.07;4.87;;;8.30;94.50;;;10.16;64.12;96997.25;5011158;28;20057;-60
2023/11/21 00:34:54;;;;;;;9.47;3.47;;;8.30;94.60;;;10.18;64.09;96996.06;5012143;28;20109;-60
2023/11/21 00:37:24;;;;;;;10.50;5.10;;;8.30;94.80;;;10.22;64.21;96999.22;4994957;28;20056;-61
2023/11/21 00:39:52;;;;;;;9.87;5.03;;;8.40;94.40;;;10.23;64.10;96990.22;5010931;28;20042;-60
2023/11/21 00:42:21;;;;;;;19.97;9.27;;;8.40;94.50;;;10.23;64.53;96988.38;5011181;28;20506;-60
2023/11/21 00:44:49;;;;;;;9.13;4.93;;;8.40;94.20;;;10.23;64.11;96988.38;5011642;28;20053;-60
2023/11/21 00:47:16;;;;;;;8.17;5.43;;;8.40;93.60;;;10.25;64.54;96993.53;5011433;28;20054;-60
2023/11/21 00:49:44;;;;;;;3.03;2.20;;;8.40;93.90;;;10.21;63.99;96993.03;5011091;28;20057;-60
2023/11/21 00:52:12;;;;;;;1.53;1.10;;;8.40;93.80;;;10.28;64.06;96997.69;4995036;28;20054;-61
2023/11/21 00:54:40;;;;;;;1.63;0.97;;;8.50;93.70;;;10.31;64.41;96992.84;4994707;28;20094;-60
2023/11/21 00:57:08;;;;;;;1.30;0.87;;;8.50;94.00;;;10.32;64.07;97002.50;5011848;28;20045;-60
2023/11/21 00:59:36;;;;;;;6.13;1.27;;;8.60;93.00;;;10.31;64.06;97002.69;5011158;28;20386;-60
2023/11/21 01:02:04;;;;;;;4.33;1.10;;;8.60;93.00;;;10.35;64.51;97003.97;5011026;28;20042;-61
2023/11/21 01:04:33;;;;;;;4.17;1.03;;;8.60;92.90;;;10.34;64.50;97000.50;5010544;28;20057;-60
2023/11/21 01:07:00;;;;;;;1.70;1.10;;;8.60;93.00;;;10.38;64.15;97008.97;5012310;28;20443;-60
2023/11/21 01:09:28;;;;;;;4.90;1.10;;;8.60;93.10;;;10.37;64.52;97001.97;5011850;28;20061;-60
2023/11/21 01:11:56;;;;;;;2.50;1.00;;;8.60;93.10;;;10.36;64.38;96998.50;5010873;28;20054;-60
2023/11/21 01:14:26;;;;;;;4.03;1.13;;;8.60;93.30;;;10.38;64.74;97003.63;5009951;28;20511;-61
2023/11/21 01:16:54;;;;;;;1.53;1.00;;;8.60;94.00;;;10.41;64.39;96998.81;5010446;28;20065;-60
2023/11/21 01:19:22;;;;;;;3.37;1.30;;;8.60;94.10;;;10.36;64.59;96998.50;5010734;28;20046;-60
2023/11/21 01:21:51;;;;;;;1.63;0.80;;;8.60;94.50;;;10.37;64.35;96991.31;5011948;28;20049;-61
2023/11/21 01:24:19;;;;;;;3.57;1.80;;;8.50;95.20;;;10.38;64.77;96993.00;5011416;28;20041;-60
2023/11/21 01:26:47;;;;;;;3.03;1.33;;;8.50;95.20;;;10.37;64.79;96997.50;5012178;28;20061;-60
2023/11/21 01:29:15;;;;;;;1.87;1.00;;;8.50;95.10;;;10.34;64.31;96987.19;5010767;28;20050;-60
2023/11/21 01:31:42;;;;;;;2.07;1.10;;;8.50;95.80;;;10.34;64.74;96991.69;5011592;28;20419;-60
2023/11/21 01:34:10;;;;;;;1.43;1.13;;;8.50;95.40;;;10.33;64.34;97001.53;5010678;28;20415;-61
2023/11/21 01:36:37;;;;;;;2.80;1.53;;;8.50;96.10;;;10.36;64.87;96990.50;5010264;28;20057;-60
2023/11/21 01:39:08;;;;;;;2.63;1.40;;;8.50;96.20;;;10.34;64.77;96995.19;5011106;28;20068;-60
2023/11/21 01:41:36;;;;;;;2.03;1.10;;;8.50;95.40;;;10.34;64.70;96989.03;5011498;28;20049;-60
2023/11/21 01:44:07;;;;;;;3.70;1.73;;;8.50;96.00;;;10.38;64.95;96991.16;5009845;28;20065;-60
2023/11/21 01:46:37;;;;;;;3.43;1.60;;;8.60;94.80;;;10.37;64.95;96989.53;5010131;28;20426;-60
2023/11/21 01:49:05;;;;;;;1.83;1.00;;;8.60;95.20;;;10.36;64.48;96995.00;5010055;28;20045;-60
2023/11/21 01:51:34;;;;;;;2.57;1.23;;;8.50;95.40;;;10.37;64.63;96992.19;4993268;28;20495;-60
2023/11/21 01:54:06;;;;;;;5.27;1.37;;;8.60;95.50;;;10.39;64.95;96997.31;5009653;28;20042;-60
2023/11/21 01:56:47;;;;;;;3.83;1.30;;;8.60;94.60;;;10.40;65.14;96994.47;5010195;28;20038;-61
2023/11/21 01:59:21;;;;;;;2.80;1.17;;;8.60;94.70;;;10.44;64.94;96994.94;4993775;28;20046;-60
2023/11/21 02:01:50;;;;;;;3.53;1.00;;;8.60;94.80;;;10.44;65.06;96989.63;5010028;28;20199;-60
2023/11/21 02:04:19;;;;;;;2.73;1.20;;;8.70;95.10;;;10.47;64.61;96993.75;5010851;28;20034;-60
2023/11/21 02:06:47;;;;;;;2.87;1.30;;;8.70;94.90;;;10.45;64.58;96991.31;5011063;28;20051;-60
2023/11/21 02:09:15;;;;;;;2.73;1.17;;;8.60;94.90;;;10.46;64.52;96981.47;5009923;28;20040;-60
2023/11/21 02:11:43;;;;;;;4.37;1.57;;;8.60;95.00;;;10.45;64.52;96983.31;5010166;28;20046;-60
2023/11/21 02:14:13;;;;;;;2.67;1.40;;;8.60;95.50;;;10.44;64.83;96986.97;5003087;28;20053;-60
2023/11/21 02:16:45;;;;;;;4.90;1.70;;;8.60;95.50;;;10.44;64.86;96987.78;5009948;28;20050;-60
2023/11/21 02:19:20;;;;;;;;;;;8.60;95.60;;;10.43;65.03;96986.16;5003510;28;20042;-60
2023/11/21 02:21:49;;;;;;;1.80;1.20;;;8.50;95.70;;;10.46;64.83;96992.94;5010963;28;19921;-60
2023/11/21 02:24:21;;;;;;;3.60;1.40;;;8.50;96.20;;;10.42;64.52;96991.63;5009647;28;20415;-59
2023/11/21 02:26:52;;;;;;;5.47;2.03;;;8.50;96.50;;;10.39;64.65;96992.84;5009759;28;20050;-59
2023/11/21 02:29:22;;;;;;;2.47;1.10;;;8.50;96.70;;;10.36;64.93;96989.69;5010962;28;20049;-60
2023/11/21 02:31:54;;;;;;;2.03;1.13;;;8.40;96.80;;;10.33;64.96;96987.38;5009768;28;20096;-60
2023/11/21 02:34:24;;;;;;;3.17;1.13;;;8.50;96.70;;;10.33;65.06;96985.56;5010589;28;20042;-60
2023/11/21 02:36:53;;;;;;;2.10;1.27;;;8.50;96.10;;;10.32;64.89;96986.53;5010029;28;20038;-60
2023/11/21 02:39:24;;;;;;;1.17;0.90;;;8.50;96.10;;;10.26;65.21;96987.22;5008992;28;20514;-60
2023/11/21 02:41:53;;;;;;;2.20;1.10;;;8.50;95.60;;;10.34;65.52;96979.22;5009904;28;20518;-59
2023/11/21 02:44:20;;;;;;;1.47;1.00;;;8.60;96.90;;;10.37;65.20;96983.34;5010221;28;20491;-60
2023/11/21 02:46:48;;;;;;;2.43;1.10;;;8.60;95.50;;;10.36;65.00;96981.69;5011054;28;20522;-60
2023/11/21 02:49:16;;;;;;;2.73;1.20;;;8.60;96.20;;;10.36;65.32;96976.38;5010926;28;20046;-60
2023/11/21 02:51:43;;;;;;;3.93;1.37;;;8.60;96.50;;;10.39;65.48;96981.34;5009788;28;20068;-60
2023/11/21 02:54:11;;;;;;;2.93;1.50;;;8.60;96.00;;;10.38;65.50;96980.50;5009261;28;20045;-60
2023/11/21 02:56:39;;;;;;;2.57;1.40;;;8.50;97.00;;;10.36;65.69;96976.38;5009615;28;20151;-60
2023/11/21 02:59:07;;;;;;;1.20;1.00;;;8.50;96.80;;;10.31;65.84;96984.88;5010462;28;20048;-60
2023/11/21 03:01:35;;;;;;;1.97;1.10;;;8.50;96.80;;;10.28;65.73;96979.06;5009691;28;20038;-60
2023/11/21 03:04:03;;;;;;;2.10;1.23;;;8.50;97.50;;;10.34;66.00;96973.88;5011080;28;20392;-60
2023/11/21 03:06:31;;;;;;;1.93;1.30;;;8.50;97.50;;;10.36;65.41;96974.53;5013867;28;20041;-60
2023/11/21 03:08:58;;;;;;;3.00;1.10;;;8.50;97.30;;;10.39;65.49;96978.66;5012716;28;20045;-60
2023/11/21 03:11:26;;;;;;;1.83;1.17;;;8.50;97.50;;;10.40;65.62;96973.19;5013089;28;20042;-60
2023/11/21 03:13:54;;;;;;;1.40;1.00;;;8.50;96.90;;;10.38;65.77;96974.38;5012457;28;20050;-60
2023/11/21 03:16:21;;;;;;;1.83;0.93;;;8.50;97.10;;;10.39;65.75;96979.53;5012545;28;20061;-60
2023/11/21 03:18:49;;;;;;;2.37;1.50;;;8.50;97.40;;;10.39;65.48;96978.66;5013667;28;20042;-60
2023/11/21 03:21:17;;;;;;;3.10;1.10;;;8.60;97.10;;;10.37;65.33;96986.84;5004893;28;20061;-60
2023/11/21 03:23:45;;;;;;;3.63;1.30;;;8.60;96.50;;;10.36;65.38;96987.84;5012707;28;20049;-60
2023/11/21 03:26:13;;;;;;;3.47;1.70;;;8.50;96.80;;;10.36;65.50;96984.38;5012936;28;20046;-60
2023/11/21 03:28:41;;;;;;;4.43;1.70;;;8.50;96.60;;;10.37;65.35;96983.34;5013158;28;20502;-60
2023/11/21 03:31:11;;;;;;;2.27;1.30;;;8.50;96.80;;;10.33;65.65;96979.38;5012527;28;20054;-60
2023/11/21 03:33:39;;;;;;;3.10;1.10;;;8.50;97.30;;;10.38;65.75;96988.50;5013587;28;20499;-60
2023/11/21 03:36:07;;;;;;;4.40;1.70;;;8.50;97.50;;;10.40;65.62;96991.00;5012624;28;20046;-60
2023/11/21 03:38:36;;;;;;;3.50;1.70;;;8.60;97.40;;;10.35;65.81;96991.53;5012507;28;20046;-60
2023/11/21 03:41:04;;;;;;;1.37;1.07;;;8.60;97.40;;;10.37;65.62;96988.66;5013052;28;20038;-60
2023/11/21 03:43:32;;;;;;;1.70;1.00;;;8.60;97.20;;;10.34;65.69;96989.84;5013331;28;20037;-60
2023/11/21 03:46:00;;;;;;;1.60;1.10;;;8.50;97.80;;;10.36;65.71;96992.34;5012348;28;20052;-60
2023/11/21 03:48:27;;;;;;;2.47;1.20;;;8.50;98.00;;;10.34;65.64;96991.69;5013440;28;20423;-60
2023/11/21 03:50:55;;;;;;;4.10;1.80;;;8.50;98.70;;;10.30;66.18;96993.88;5012112;28;20042;-60
2023/11/21 03:53:23;;;;;;;2.43;0.93;;;8.50;99.00;;;10.29;66.40;96991.34;5011996;28;20050;-60
2023/11/21 03:55:50;;;;;;;1.30;0.80;;;8.40;98.60;;;10.30;66.02;96993.88;5013650;28;20511;-60
2023/11/21 03:58:18;;;;;;;2.10;1.00;;;8.50;99.10;;;10.34;65.83;97008.47;5013244;28;20443;-60
2023/11/21 04:00:48;;;;;;;0.70;0.70;;;8.50;98.70;;;10.37;65.93;97008.16;5011978;28;20042;-60
2023/11/21 04:03:16;;;;;;;1.43;0.93;;;8.50;99.10;;;10.38;66.17;97007.13;5012918;28;20041;-60
2023/11/21 04:05:45;;;;;;;2.93;1.10;;;8.50;98.90;;;10.40;66.21;97006.97;5013304;28;20061;-60
2023/11/21 04:08:13;;;;;;;2.10;1.40;;;8.50;99.00;;;10.39;65.90;97008.78;5012932;28;20053;-60
2023/11/21 04:10:42;;;;;;;5.53;2.10;;;8.50;98.60;;;10.39;66.26;97010.59;5013284;28;20053;-60
2023/11/21 04:13:10;;;;;;;3.70;1.33;;;8.50;98.50;;;10.33;65.96;97008.66;5011475;28;20060;-60
2023/11/21 04:15:38;;;;;;;3.67;1.10;;;8.40;98.90;;;10.32;66.12;97005.16;5011736;28;20116;-60
2023/11/21 04:18:05;;;;;;;2.33;1.33;;;8.40;99.00;;;10.29;66.41;97013.47;5012789;28;20054;-60
2023/11/21 04:20:33;;;;;;;2.43;1.17;;;8.40;99.30;;;10.28;66.32;97005.69;5012563;28;20038;-60
2023/11/21 04:23:01;;;;;;;2.57;1.57;;;8.40;98.90;;;10.30;66.10;97016.97;5012471;28;20042;-60
2023/11/21 04:25:28;;;;;;;2.20;0.97;;;8.50;99.30;;;10.26;66.21;97013.81;5012755;28;20514;-60
2023/11/21 04:27:56;;;;;;;3.97;1.10;;;8.50;99.20;;;10.31;66.19;97008.00;5013312;28;20048;-59
2023/11/21 04:30:24;;;;;;;2.77;1.20;;;8.50;98.80;;;10.30;66.20;97009.84;5005344;28;20045;-60
2023/11/21 04:32:52;;;;;;;1.67;1.43;;;8.50;99.20;;;10.32;66.25;97015.00;5012475;28;20046;-60
2023/11/21 04:35:19;;;;;;;1.70;1.23;;;8.50;99.10;;;10.32;65.94;97007.00;5008175;28;20049;-60
2023/11/21 04:37:47;;;;;;;2.20;1.00;;;8.50;99.00;;;10.33;66.28;97009.50;4978257;28;20052;-60
2023/11/21 04:40:15;;;;;;;1.57;1.20;;;8.50;98.90;;;10.34;65.97;97020.97;5012489;28;20049;-60
2023/11/21 04:42:43;;;;;;;1.77;0.83;;;8.50;98.80;;;10.34;65.95;97015.66;5012359;28;20049;-59
2023/11/21 04:45:11;;;;;;;2.90;1.40;;;8.50;98.50;;;10.32;66.16;97013.16;5011222;28;20056;-60
2023/11/21 04:47:40;;;;;;;1.50;1.10;;;8.40;98.50;;;10.28;66.02;97008.34;5012430;28;20123;-60
2023/11/21 04:50:08;;;;;;;1.30;0.90;;;8.40;99.10;;;10.25;66.28;97013.00;5011187;28;20193;-60
2023/11/21 04:52:36;;;;;;;5.43;1.20;;;8.30;99.10;;;10.23;65.89;97012.31;5012202;28;20046;-60
2023/11/21 04:55:06;;;;;;;2.33;1.10;;;8.30;99.30;;;10.18;65.86;97009.38;5011899;28;20050;-60
2023/11/21 04:57:34;;;;;;;4.17;0.90;;;8.30;98.70;;;10.21;66.14;97008.19;5011158;28;20514;-60
2023/11/21 05:00:05;;;;;;;1.97;1.40;;;8.30;99.10;;;10.18;66.24;97012.03;5011956;28;20045;-60
2023/11/21 05:02:38;;;;;;;1.97;1.13;;;8.30;99.10;;;10.15;66.08;97009.72;5012065;28;20049;-60
2023/11/21 05:05:07;;;;;;;2.20;1.00;;;8.20;99.00;;;10.16;65.93;97014.03;5011846;28;20098;-60
2023/11/21 05:07:35;;;;;;;2.30;1.07;;;8.30;99.10;;;10.16;65.71;97016.69;5012107;28;20286;-60
2023/11/21 05:10:14;;;;;;;1.10;1.00;;;8.20;98.70;;;10.16;65.96;97019.34;5011907;28;20100;-60
2023/11/21 05:12:42;;;;;;;1.67;1.00;;;8.20;98.60;;;10.15;65.69;97020.34;5011986;28;20038;-60
2023/11/21 05:15:14;;;;;;;3.47;1.10;;;8.20;98.20;;;10.16;65.85;97018.53;5011489;28;20569;-60
2023/11/21 05:17:42;;;;;;;2.00;1.07;;;8.20;98.50;;;10.14;65.93;97024.03;5011894;28;20370;-60
2023/11/21 05:20:13;;;;;;;2.27;0.90;;;8.20;97.60;;;10.10;65.76;97024.53;5011706;28;20499;-60
2023/11/21 05:22:44;;;;;;;0.97;0.80;;;8.20;98.90;;;10.09;65.72;97026.38;5011711;28;20045;-60
2023/11/21 05:25:12;;;;;;;1.53;0.90;;;8.20;98.50;;;10.12;65.97;97036.66;5011296;28;20053;-60
2023/11/21 05:27:39;;;;;;;1.37;0.90;;;8.20;98.00;;;10.10;66.21;97036.03;5011580;28;20053;-60
2023/11/21 05:30:12;;;;;;;2.60;1.10;;;8.20;98.00;;;10.08;66.15;97037.16;5011928;28;20414;-60
2023/11/21 05:32:42;;;;;;;2.03;1.00;;;8.20;97.70;;;10.08;66.00;97045.16;5011966;28;20046;-60
2023/11/21 05:35:15;;;;;;;2.70;0.93;;;8.20;97.90;;;10.06;65.60;97040.00;5011354;28;20053;-60
2023/11/21 05:37:45;;;;;;;;;;;8.20;98.10;;;10.06;65.75;97045.31;5011890;28;20049;-60
2023/11/21 05:40:13;;;;;;;1.83;1.17;;;8.20;98.40;;;10.07;65.76;97048.81;5010553;28;20390;-60
2023/11/21 05:42:41;;;;;;;2.23;1.00;;;8.20;98.40;;;10.04;66.11;97056.16;5010251;28;20045;-59
2023/11/21 05:45:10;;;;;;;2.03;1.30;;;8.10;98.40;;;10.03;66.16;97045.69;4993940;28;20061;-60
2023/11/21 05:47:43;;;;;;;1.03;0.93;;;8.10;98.70;;;10.03;66.09;97056.31;5011286;28;20049;-60
2023/11/21 05:50:15;;;;;;;2.07;1.20;;;8.20;97.90;;;10.03;66.17;97056.31;5011187;28;20058;-60
2023/11/21 05:52:45;;;;;;;2.10;1.10;;;8.10;98.10;;;10.02;65.94;97059.97;5011107;28;20423;-60
2023/11/21 05:55:13;;;;;;;1.87;1.27;;;8.20;97.80;;;10.02;65.57;97059.97;5010946;28;20046;-60
2023/11/21 05:57:43;;;;;;;2.10;1.10;;;8.20;97.70;;;10.02;65.63;97062.63;5011259;28;20495;-60
2023/11/21 06:00:19;;;;;;;4.77;1.37;;;8.10;98.00;;;10.02;65.72;97071.44;5011043;28;20061;-60
2023/11/21 06:02:54;;;;;;;1.70;1.00;;;8.20;98.20;;;10.03;65.90;97065.13;5011198;28;20041;-60
2023/11/21 06:05:25;;;;;;;1.77;0.97;;;8.10;97.40;;;10.05;65.49;97068.44;5011297;28;20046;-60
2023/11/21 06:07:58;;;;;;;2.20;0.97;;;8.10;97.60;;;10.07;65.57;97076.25;5010986;28;20046;-60
2023/11/21 06:10:28;;;;;;;1.83;1.13;;;8.20;97.70;;;10.09;65.52;97078.75;5010935;28;20067;-59
2023/11/21 06:12:57;;;;;;;1.53;1.10;;;8.20;97.20;;;10.08;65.54;97080.56;5010889;28;20057;-60
2023/11/21 06:15:29;;;;;;;2.53;1.40;;;8.10;97.10;;;10.05;65.58;97081.72;5011070;28;20052;-60
2023/11/21 06:17:59;;;;;;;2.90;1.40;;;8.20;97.40;;;10.05;65.64;97083.56;5011113;28;20439;-60
2023/11/21 06:20:28;;;;;;;2.70;1.13;;;8.20;98.20;;;10.07;65.62;97086.06;5010648;28;20053;-60
2023/11/21 06:22:55;;;;;;;2.57;1.30;;;8.20;96.90;;;10.07;65.53;97089.53;5010458;28;20491;-60
2023/11/21 06:25:23;;;;;;;2.20;1.17;;;8.10;97.70;;;10.04;65.48;97084.56;5009836;28;20056;-60
2023/11/21 06:27:52;;;;;;;2.73;1.73;;;8.10;97.50;;;10.04;65.29;97085.41;5009984;28;20050;-60
2023/11/21 06:30:21;;;;;;;1.97;1.00;;;8.10;98.50;;;10.02;65.14;97079.44;5010493;28;20054;-60
2023/11/21 06:32:50;;;;;;;2.73;1.33;;;8.00;97.10;;;9.99;64.92;97086.91;5010744;28;20103;-60
2023/11/21 06:35:18;;;;;;;3.07;1.13;;;8.00;97.10;;;9.96;65.10;97088.06;5010926;28;20057;-61
2023/11/21 06:37:49;;;;;;;2.60;1.33;;;8.00;97.20;;;9.92;65.11;97091.25;5010722;28;20046;-60
2023/11/21 06:40:19;;;;;;;2.40;1.43;;;7.90;97.30;;;9.85;64.91;97091.94;5013660;28;20045;-59
2023/11/21 06:42:48;;;;;;;3.90;1.50;;;7.90;97.60;;;9.84;65.06;97092.91;5013016;28;20468;-62
2023/11/21 06:45:16;;;;;;;2.07;1.40;;;7.90;97.30;;;9.82;65.12;97099.41;5014638;28;20152;-62
2023/11/21 06:47:44;;;;;;;2.03;1.50;;;7.80;97.20;;;9.81;65.03;97113.72;5014689;28;20041;-60
2023/11/21 06:50:13;;;;;;;1.40;1.10;;;7.80;97.90;;;9.79;65.45;97105.06;5014179;28;20061;-60
2023/11/21 06:52:40;;;;;;;2.90;1.57;;;7.80;97.40;;;9.75;65.29;97109.91;5014503;28;20049;-60
2023/11/21 06:55:09;;;;;;;2.03;1.43;;;7.80;98.00;;;9.76;65.51;97118.72;5014236;28;20057;-60
2023/11/21 06:57:38;;;;;;;3.40;1.50;;;7.80;98.30;;;9.77;65.39;97112.38;5014602;28;20396;-60
2023/11/21 07:00:08;;;;;;;1.60;1.20;;;7.90;98.60;;;9.82;65.34;97120.69;5014250;28;20050;-60
2023/11/21 07:02:38;;;;;;;1.80;1.40;;;7.90;98.10;;;9.86;65.73;97124.66;5012884;28;20061;-59
2023/11/21 07:05:06;;;;;;;2.03;1.37;;;8.00;98.00;;;9.90;65.45;97136.63;5014195;28;20050;-60
2023/11/21 07:07:35;;;;;;;1.53;1.40;;;8.00;97.50;;;9.93;65.58;97135.47;5012964;28;20034;-61
2023/11/21 07:10:05;;;;;;;2.90;1.53;;;8.10;98.00;;;9.96;65.70;97135.94;5013988;28;20046;-62
2023/11/21 07:12:33;;;;;;;2.83;1.47;;;8.10;97.60;;;10.00;65.87;97137.28;5013880;28;20054;-63
2023/11/21 07:15:02;;;;;;;3.03;2.13;;;8.10;98.00;;;10.05;65.87;97142.91;5013449;28;20122;-62
2023/11/21 07:17:31;;;;;;;1.47;1.20;;;8.20;97.40;;;10.07;65.53;97141.91;5013905;28;20125;-62
2023/11/21 07:19:59;;;;;;;3.20;1.77;;;8.20;97.50;;;10.12;65.47;97140.41;5013619;28;20049;-62
2023/11/21 07:22:27;;;;;;;3.30;1.60;;;8.30;97.50;;;10.14;65.79;97146.38;5013924;28;20045;-62
2023/11/21 07:24:56;;;;;;;3.70;1.40;;;8.30;97.50;;;10.18;65.71;97152.19;5013567;28;20537;-61
2023/11/21 07:27:24;;;;;;;2.10;1.47;;;8.30;97.30;;;10.18;65.80;97161.00;5013875;28;20518;-61
2023/11/21 07:29:51;;;;;;;1.77;1.20;;;8.30;97.30;;;10.19;65.95;97162.63;5013829;28;20330;-61
2023/11/21 07:32:19;;;;;;;2.27;1.63;;;8.30;97.70;;;10.17;65.91;97164.63;5013743;28;20491;-61
2023/11/21 07:34:47;;;;;;;2.80;1.60;;;8.30;98.50;;;10.19;65.77;97172.47;5012454;28;20525;-60
2023/11/21 07:37:14;;;;;;;2.80;1.60;;;8.30;98.60;;;10.20;65.60;97172.28;5010121;28;20058;-60
2023/11/21 07:39:42;;;;;;;3.17;1.73;;;8.30;99.00;;;10.17;65.78;97169.97;5011973;28;20046;-60
2023/11/21 07:42:18;;;;;;;5.10;3.20;;;8.30;99.60;;;10.22;65.93;97172.13;5008095;28;20046;-56
2023/11/21 07:45:11;;;;;;;13.63;7.33;;;8.30;99.90;;;10.21;65.93;97175.78;5011295;28;20529;-63
2023/11/21 07:47:39;;;;;;;15.80;10.03;;;8.30;99.90;;;10.21;66.48;97175.78;5013565;28;20148;-64
2023/11/21 07:50:08;;;;;;;24.10;11.27;;;8.30;99.90;;;10.24;66.07;97175.44;5012052;28;20045;-64
2023/11/21 07:52:36;;;;;;;17.00;8.57;;;8.30;99.90;;;10.28;66.47;97181.25;5013155;28;20053;-64
2023/11/21 07:55:04;;;;;;;16.70;8.00;;;8.40;99.90;;;10.30;66.11;97179.25;5012005;28;20042;-64
2023/11/21 07:57:31;;;;;;;10.23;6.10;;;8.40;99.90;;;10.32;66.63;97186.09;5013461;28;20064;-64
2023/11/21 08:00:00;;;;;;;5.93;3.33;;;8.40;99.90;;;10.31;66.36;97192.41;5013106;28;20053;-64
2023/11/21 08:02:28;;;;;;;4.10;2.93;;;8.40;99.90;;;10.26;66.38;97189.41;5012001;28;20054;-64
2023/11/21 08:04:56;;;;;;;3.73;2.90;;;8.40;99.90;;;10.17;66.93;97193.09;5012802;28;20038;-64
2023/11/21 08:07:24;;;;;;;3.83;2.40;;;8.30;99.90;;;10.11;66.86;97196.41;5012575;28;20045;-64
2023/11/21 08:09:52;;;;;;;6.27;3.60;;;8.20;99.90;;;10.12;66.91;97198.91;5013278;28;20060;-64
2023/11/21 08:12:20;;;;;;;4.43;3.07;;;8.20;99.90;;;10.07;67.42;97195.09;5012940;28;20057;-65
2023/11/21 08:14:47;;;;;;;5.20;3.40;;;8.20;99.90;;;10.08;67.20;97196.75;5012530;28;20049;-64
2023/11/21 08:17:15;;;;;;;4.53;3.13;;;8.20;99.90;;;10.02;67.54;97195.59;5013059;28;20061;-65
2023/11/21 08:19:49;;;;;;;4.80;3.57;;;8.20;99.90;;;10.02;67.84;97195.59;5005085;28;20045;-66
2023/11/21 08:22:17;;;;;;;6.70;4.43;;;8.20;99.90;;;10.09;67.60;97198.41;5012821;28;20045;-64
2023/11/21 08:24:46;;;;;;;5.70;3.77;;;8.20;99.90;;;10.05;68.05;97196.09;5003378;28;20038;-65
2023/11/21 08:27:16;;;;;;;4.60;3.00;;;8.20;99.90;;;10.03;68.15;97200.75;5012655;28;20042;-64
2023/11/21 08:29:43;;;;;;;5.93;3.20;;;8.20;99.90;;;9.96;68.39;97205.06;5012260;28;20033;-64
2023/11/21 08:32:11;;;;;;;5.23;2.77;;;8.20;99.90;;;10.02;68.36;97200.91;5011851;28;20404;-65
2023/11/21 08:34:39;;;;;;;3.43;2.93;;;8.20;99.90;;;10.07;68.17;97206.56;5011931;28;20046;-66
2023/11/21 08:37:07;;;;;;;4.27;2.50;;;8.20;99.90;;;10.14;67.83;97210.22;5012779;28;20057;-64
2023/11/21 08:39:37;;;;;;;4.00;2.77;;;8.30;99.90;;;10.22;67.98;97206.72;5012256;28;20049;-65
2023/11/21 08:42:05;;;;;;;5.10;3.10;;;8.40;99.90;;;10.24;68.13;97202.88;5011499;28;20049;-64
2023/11/21 08:44:32;;;;;;;3.27;2.40;;;8.40;99.90;;;10.28;67.97;97207.88;5012241;28;20042;-65
2023/11/21 08:47:00;;;;;;;3.60;2.77;;;8.40;99.90;;;10.28;67.67;97213.19;5012285;28;20041;-65
2023/11/21 08:49:29;;;;;;;3.90;2.67;;;8.40;99.90;;;10.29;67.65;97209.50;5012069;28;20045;-65
2023/11/21 08:51:59;;;;;;;4.33;2.73;;;8.40;99.90;;;10.33;68.16;97219.69;5012399;28;20056;-65
2023/11/21 08:54:27;;;;;;;3.57;2.60;;;8.40;99.90;;;10.34;67.76;97215.19;5010754;28;20057;-66
2023/11/21 08:56:54;;;;;;;8.57;4.60;;;8.50;99.90;;;10.35;67.95;97225.69;5012316;28;20519;-65
2023/11/21 08:59:22;;;;;;;5.53;3.07;;;8.50;99.90;;;10.41;67.77;97226.81;5012241;28;20060;-65
2023/11/21 09:01:50;;;;;;;5.10;3.70;;;8.50;99.90;;;10.44;67.78;97216.66;5011565;28;20042;-65
2023/11/21 09:04:18;;;;;;;4.37;2.70;;;8.60;99.90;;;10.48;67.98;97224.31;5011666;28;20360;-65
2023/11/21 09:06:46;;;;;;;5.17;3.87;;;8.60;99.90;;;10.48;68.24;97230.44;5010919;28;20049;-65
2023/11/21 09:09:13;;;;;;;4.43;3.20;;;8.60;99.90;;;10.49;68.13;97229.47;5011910;28;20511;-65
2023/11/21 09:11:41;;;;;;;5.80;4.30;;;8.60;99.90;;;10.52;67.88;97226.44;5011986;28;20518;-65
2023/11/21 09:14:09;;;;;;;6.07;3.17;;;8.60;99.90;;;10.56;67.81;97234.91;5011580;28;20522;-66
2023/11/21 09:16:38;;;;;;;2.27;2.00;;;8.70;99.90;;;10.57;67.70;97233.94;5011938;28;20048;-65
2023/11/21 09:19:06;;;;;;;3.77;2.30;;;8.70;99.90;;;10.58;67.69;97236.41;5010241;28;20045;-66
2023/11/21 09:21:34;;;;;;;2.67;2.00;;;8.70;99.90;;;10.60;67.83;97241.56;5010355;28;20038;-65
2023/11/21 09:24:02;;;;;;;1.97;1.60;;;8.70;99.90;;;10.62;67.90;97245.72;5011464;28;20038;-65
2023/11/21 09:26:30;;;;;;;9.20;2.70;;;8.70;99.90;;;10.68;67.83;97248.69;5012000;28;20050;-65
2023/11/21 09:28:58;;;;;;;35.20;10.37;;;8.80;99.90;;;10.71;67.51;97259.00;5010301;28;20045;-65
2023/11/21 09:31:27;;;;;;;3.53;1.60;;;8.80;99.90;;;10.72;67.97;97258.00;5010611;28;20060;-65
2023/11/21 09:33:54;;;;;;;5.77;1.87;;;8.80;99.90;;;10.75;67.51;97258.47;5011287;28;20049;-65
2023/11/21 09:36:27;;;;;;;4.10;1.73;;;8.80;99.90;;;10.77;67.96;97258.31;5011403;28;20056;-66
2023/11/21 09:38:55;;;;;;;1.95;1.33;;;8.90;99.90;;;10.78;67.48;97266.13;5003855;28;20422;-67
2023/11/21 09:42:05;;;;;;;2.03;1.50;;;8.90;99.90;;;10.78;67.92;97267.97;5009780;28;20419;-65
2023/11/21 09:44:42;;;;;;;1.33;1.10;;;9.00;99.90;;;10.81;67.54;97263.13;4990735;28;20058;-65
2023/11/21 09:47:14;;;;;;;1.43;1.03;;;9.00;99.90;;;10.83;67.63;97271.75;5010341;28;20396;-66
2023/11/21 09:49:47;;;;;;;2.40;1.10;;;9.00;99.90;;;10.82;67.79;97270.13;5009974;28;20053;-66
2023/11/21 09:52:27;;;;;;;2.75;1.45;;;9.00;99.90;;;10.84;67.92;97265.44;5010140;28;20045;-67
2023/11/21 09:55:00;;;;;;;9.20;2.03;;;9.00;99.90;;;10.87;68.14;97266.91;5003240;28;20038;-66
2023/11/21 09:57:28;;;;;;;2.07;1.43;;;9.00;99.90;;;10.92;68.26;97263.75;5011200;28;20068;-66
2023/11/21 10:00:00;;;;;;;4.33;1.50;;;9.10;99.90;;;10.99;67.95;97262.91;5011231;28;20491;-66
2023/11/21 10:02:36;;;;;;;3.33;1.17;;;9.20;99.90;;;11.02;67.89;97262.53;5010280;28;20042;-66
2023/11/21 10:05:04;;;;;;;1.33;1.13;;;9.20;99.90;;;11.05;68.14;97261.38;5010060;28;20054;-65
2023/11/21 10:07:34;;;;;;;1.50;1.40;;;9.20;99.90;;;11.08;67.91;97260.19;5011026;28;20415;-65
2023/11/21 10:10:02;;;;;;;2.77;1.67;;;9.30;99.90;;;11.09;67.86;97276.00;5009808;28;20034;-66
2023/11/21 10:12:32;;;;;;;2.40;1.57;;;9.20;99.90;;;11.10;67.68;97271.50;5010346;28;20054;-65
2023/11/21 10:15:01;;;;;;;2.60;1.70;;;9.30;99.90;;;11.12;67.43;97269.50;5009513;28;20045;-66
2023/11/21 10:17:39;;;;;;;2.40;1.73;;;9.30;99.90;;;11.06;67.45;97281.66;4993786;28;20054;-67
2023/11/21 10:20:11;;;;;;;2.67;1.97;;;9.20;99.90;;;11.06;67.63;97271.00;5003381;28;20072;-65
2023/11/21 10:22:42;;;;;;;2.97;1.73;;;9.20;99.90;;;11.07;67.69;97274.50;5003062;28;20053;-65
2023/11/21 10:25:10;;;;;;;2.13;1.63;;;9.20;99.90;;;11.04;67.26;97271.19;5010822;28;20050;-66
2023/11/21 10:27:40;;;;;;;2.93;2.30;;;9.20;99.90;;;11.04;67.31;97267.69;5011042;28;20049;-66
2023/11/21 10:30:12;;;;;;;3.27;2.23;;;9.20;99.90;;;11.07;67.92;97266.50;5011028;28;20491;-66
2023/11/21 10:32:41;;;;;;;5.53;3.00;;;9.30;99.90;;;11.08;67.75;97279.66;5011138;28;20138;-66
2023/11/21 10:35:10;;;;;;;3.90;2.20;;;9.30;99.90;;;11.12;67.71;97282.81;5010776;28;20041;-65